Lower Burrell, Pennsylvania
Current Conditions -  °F | °C
As of 10:55 AM on Friday 31 Oct 2014 (Local Time) from KBTP Reporting Station
Overcast Overcast  
Wind Chill: 45°   Ceiling: 4800
Heat Index: 45°   Visibility: 10mi
Dew Point: 36°   Wind: 3mph
Humidity: 71%   Direction: 190°S
Pressure: 29.95"   Gusts: NA
Location:  40.59°N, 79.73°W
Report Text: KBTP 311455Z AUTO 19003KT 10SM OVC048 07/02 A2995 RMK AO1 57007
Loading
Personal Weather Stations






























Interactive Weather Map
Tropical Storm Tracking
New forecast layout! Learn more

10-Day Weather Forecast

Advertisements
Track Severe Weather on mobile